Time;durP1;ratioP1;P1;durP2;ratioP2;P2;SDS_P1;SDS_P2;PMS_P1;PMS_P2;Temp;Humidity;BMP_temperature;BMP_pressure;BME280_temperature;BME280_humidity;BME280_pressure;Samples;Min_cycle;Max_cycle;Signal;HPM_P1;HPM_P2
2024/03/21 00:02:10;;;;;;;5.70;4.40;;;;;;;10.81;56.05;101802.33;107092;1255;25494;-59
2024/03/21 00:04:37;;;;;;;6.50;5.30;;;;;;;10.82;55.91;101799.55;106835;1259;22628;-58
2024/03/21 00:07:04;;;;;;;6.30;5.70;;;;;;;10.82;56.07;101799.89;107158;1257;25448;-58
2024/03/21 00:09:32;;;;;;;6.90;6.20;;;;;;;10.89;55.95;101802.27;106807;1270;25378;-58
2024/03/21 00:11:59;;;;;;;7.80;7.00;;;;;;;10.95;55.93;101798.25;107174;1254;25363;-59
2024/03/21 00:14:27;;;;;;;7.70;6.90;;;;;;;10.98;56.00;101796.66;106827;1267;25490;-59
2024/03/21 00:16:55;;;;;;;7.90;7.10;;;;;;;11.02;56.02;101792.64;106944;1267;25356;-58
2024/03/21 00:19:21;;;;;;;8.10;7.20;;;;;;;11.04;56.17;101794.53;107180;1255;25449;-58
2024/03/21 00:21:50;;;;;;;7.90;7.10;;;;;;;11.07;56.04;101794.86;106987;1267;25341;-58
2024/03/21 00:24:17;;;;;;;7.70;6.90;;;;;;;11.08;56.08;101795.38;106950;1257;25004;-58
2024/03/21 00:26:44;;;;;;;7.50;6.40;;;;;;;11.09;56.06;101793.45;106596;1263;25367;-58
2024/03/21 00:29:11;;;;;;;6.00;5.40;;;;;;;11.08;55.94;101796.77;106793;1257;25496;-58
2024/03/21 00:31:39;;;;;;;6.50;5.40;;;;;;;11.03;55.61;101792.29;106831;1257;25366;-59
2024/03/21 00:34:10;;;;;;;4.30;2.90;;;;;;;10.97;55.43;101794.76;106746;1254;22539;-58
2024/03/21 00:36:37;;;;;;;1.80;1.60;;;;;;;10.84;54.66;101793.96;106596;1264;22666;-58
2024/03/21 00:39:04;;;;;;;2.30;2.00;;;;;;;10.72;54.34;101790.23;105984;1261;1002823;-58
2024/03/21 00:41:31;;;;;;;2.10;1.90;;;;;;;10.60;54.26;101786.84;106753;1251;25494;-58
2024/03/21 00:43:58;;;;;;;3.00;2.70;;;;;;;10.49;54.31;101785.50;106281;1257;1002615;-58
2024/03/21 00:46:26;;;;;;;3.60;3.00;;;;;;;10.38;54.89;101789.55;107152;1264;25338;-58
2024/03/21 00:48:53;;;;;;;3.50;3.20;;;;;;;10.31;55.29;101789.23;106771;1260;22524;-58
2024/03/21 00:51:20;;;;;;;4.80;4.30;;;;;;;10.28;55.56;101790.80;106895;1255;25487;-58
2024/03/21 00:53:47;;;;;;;7.00;6.00;;;;;;;10.30;55.98;101788.20;107148;1251;25450;-58
2024/03/21 00:56:14;;;;;;;6.30;5.70;;;;;;;10.37;56.14;101789.38;107068;1251;25353;-58
2024/03/21 00:58:41;;;;;;;6.90;6.20;;;;;;;10.42;56.23;101787.61;107042;1270;22604;-58
2024/03/21 01:01:07;;;;;;;5.90;5.30;;;;;;;10.49;56.24;101781.51;106424;1253;1003497;-58
2024/03/21 01:03:34;;;;;;;6.00;5.40;;;;;;;10.54;56.04;101779.23;107119;1254;22524;-58
2024/03/21 01:06:01;;;;;;;6.50;5.90;;;;;;;10.59;55.94;101778.16;107119;1255;25337;-58
2024/03/21 01:08:28;;;;;;;6.40;5.80;;;;;;;10.63;55.76;101775.70;107120;1260;25366;-58
2024/03/21 01:10:56;;;;;;;5.80;5.30;;;;;;;10.64;55.46;101772.75;107083;1266;24528;-59
2024/03/21 01:13:23;;;;;;;6.80;6.10;;;;;;;10.62;55.26;101770.17;107058;1274;24251;-58
2024/03/21 01:15:50;;;;;;;6.30;5.70;;;;;;;10.62;55.40;101769.14;106965;1260;25408;-58
2024/03/21 01:18:17;;;;;;;5.70;4.90;;;;;;;10.61;55.09;101764.10;107063;1257;25347;-58
2024/03/21 01:20:44;;;;;;;6.40;5.80;;;;;;;10.61;55.08;101764.45;107148;1251;25424;-58
2024/03/21 01:23:11;;;;;;;6.20;5.60;;;;;;;10.60;55.01;101759.94;107154;1254;24254;-58
2024/03/21 01:25:38;;;;;;;7.00;6.30;;;;;;;10.61;55.16;101760.27;106875;1257;25347;-58
2024/03/21 01:28:06;;;;;;;7.30;6.50;;;;;;;10.64;55.22;101754.70;106959;1257;25528;-58
2024/03/21 01:30:33;;;;;;;8.70;7.20;;;;;;;10.67;55.29;101754.68;106796;1257;25341;-58
2024/03/21 01:33:03;;;;;;;8.10;7.30;;;;;;;10.69;55.06;101753.46;107174;1264;25375;-58
2024/03/21 01:35:30;;;;;;;9.30;8.40;;;;;;;10.71;55.05;101748.25;107021;1258;25360;-58
2024/03/21 01:37:58;;;;;;;8.70;7.90;;;;;;;10.73;54.96;101747.88;107138;1264;25357;-58
2024/03/21 01:40:25;;;;;;;9.50;8.50;;;;;;;10.75;54.95;101748.56;107050;1253;25348;-58
2024/03/21 01:42:52;;;;;;;9.70;8.70;;;;;;;10.76;54.80;101746.66;106957;1256;25366;-58
2024/03/21 01:45:19;;;;;;;9.50;8.20;;;;;;;10.77;54.83;101746.13;106816;1267;25415;-58
2024/03/21 01:47:46;;;;;;;9.20;8.30;;;;;;;10.80;54.75;101743.67;107135;1257;25385;-58
2024/03/21 01:50:13;;;;;;;8.90;8.00;;;;;;;10.80;54.80;101742.61;107001;1257;24206;-59
2024/03/21 01:52:41;;;;;;;9.60;8.60;;;;;;;10.81;54.68;101743.48;107112;1257;22532;-59
2024/03/21 01:55:14;;;;;;;9.30;8.30;;;;;;;10.82;54.62;101737.39;107255;1251;25465;-58
2024/03/21 01:57:41;;;;;;;9.50;8.60;;;;;;;10.82;54.64;101735.33;107090;1251;25356;-58
2024/03/21 02:00:09;;;;;;;11.10;8.50;;;;;;;10.80;54.41;101737.95;107140;1251;25424;-58
2024/03/21 02:02:36;;;;;;;9.00;8.10;;;;;;;10.69;54.68;101737.67;106870;1260;22535;-58
2024/03/21 02:05:03;;;;;;;10.80;8.30;;;;;;;10.72;54.81;101737.13;106977;1253;25416;-59
2024/03/21 02:07:31;;;;;;;10.00;9.00;;;;;;;10.75;54.69;101734.52;106764;1259;25366;-59
2024/03/21 02:09:58;;;;;;;10.30;8.30;;;;;;;10.75;54.58;101734.68;106998;1257;24233;-58
2024/03/21 02:12:42;;;;;;;8.60;7.70;;;;;;;10.73;54.55;101730.18;106767;1257;364870;-58
2024/03/21 02:15:09;;;;;;;9.30;8.00;;;;;;;10.71;54.61;101731.06;107128;1251;25415;-58
2024/03/21 02:17:37;;;;;;;8.80;7.90;;;;;;;10.69;54.63;101728.13;107123;1254;25365;-58
2024/03/21 02:20:04;;;;;;;8.70;7.80;;;;;;;10.68;54.79;101730.21;107132;1256;24195;-58
2024/03/21 02:22:38;;;;;;;9.20;7.70;;;;;;;10.69;54.94;101727.44;107149;1254;25246;-58
2024/03/21 02:25:06;;;;;;;8.20;7.00;;;;;;;10.72;54.91;101725.84;106953;1255;25375;-59
2024/03/21 02:27:34;;;;;;;8.10;7.30;;;;;;;10.80;54.64;101728.23;106948;1254;22969;-59
2024/03/21 02:30:01;;;;;;;7.70;6.90;;;;;;;10.80;54.64;101726.31;106852;1251;25347;-59
2024/03/21 02:32:28;;;;;;;7.60;6.80;;;;;;;10.79;54.61;101723.71;107043;1254;24389;-58
2024/03/21 02:34:55;;;;;;;8.00;7.20;;;;;;;10.77;54.62;101726.33;107080;1252;25363;-59
2024/03/21 02:37:22;;;;;;;7.00;6.20;;;;;;;10.75;54.57;101723.56;107139;1266;25375;-58
2024/03/21 02:39:52;;;;;;;7.40;6.60;;;;;;;10.74;54.37;101721.14;107198;1254;25487;-58
2024/03/21 02:42:21;;;;;;;6.50;5.80;;;;;;;10.72;54.49;101718.91;106749;1267;24244;-59
2024/03/21 02:44:48;;;;;;;7.00;6.30;;;;;;;10.69;54.56;101723.44;106952;1257;25423;-58
2024/03/21 02:47:16;;;;;;;7.60;6.60;;;;;;;10.68;54.50;101722.75;107010;1267;25365;-58
2024/03/21 02:49:42;;;;;;;8.30;6.60;;;;;;;10.67;54.43;101723.98;107158;1251;22585;-58
2024/03/21 02:52:09;;;;;;;6.80;6.10;;;;;;;10.66;54.42;101726.76;107076;1254;25341;-58
2024/03/21 02:54:36;;;;;;;7.00;5.70;;;;;;;10.65;54.34;101725.21;107093;1257;25347;-58
2024/03/21 02:57:04;;;;;;;6.70;6.10;;;;;;;10.65;54.32;101725.02;107027;1251;25334;-58
2024/03/21 02:59:34;;;;;;;6.80;6.10;;;;;;;10.61;54.03;101724.53;106760;1257;25252;-59
2024/03/21 03:02:03;;;;;;;7.80;6.40;;;;;;;10.57;53.98;101723.86;107148;1257;25381;-58
2024/03/21 03:04:31;;;;;;;7.40;6.60;;;;;;;10.57;54.15;101725.62;107175;1254;25395;-58
2024/03/21 03:06:58;;;;;;;7.60;6.80;;;;;;;10.56;53.99;101726.48;106885;1256;25535;-58
2024/03/21 03:09:25;;;;;;;8.10;6.80;;;;;;;10.52;54.10;101725.29;107046;1254;22640;-58
2024/03/21 03:11:52;;;;;;;8.40;6.60;;;;;;;10.53;54.14;101727.02;106788;1260;25366;-58
2024/03/21 03:14:19;;;;;;;8.10;7.20;;;;;;;10.49;54.23;101728.41;107130;1259;25366;-58
2024/03/21 03:16:46;;;;;;;8.30;7.40;;;;;;;10.51;54.19;101729.45;107078;1262;25366;-58
2024/03/21 03:19:13;;;;;;;9.10;7.40;;;;;;;10.47;54.20;101729.29;106373;1254;1002872;-58
2024/03/21 03:21:40;;;;;;;8.40;7.30;;;;;;;10.41;54.35;101730.04;107115;1254;25369;-58
2024/03/21 03:24:07;;;;;;;9.10;8.00;;;;;;;10.39;54.49;101731.78;106847;1266;25436;-58
2024/03/21 03:26:34;;;;;;;7.70;7.00;;;;;;;10.41;54.35;101732.98;107133;1251;25353;-58
2024/03/21 03:29:01;;;;;;;7.80;7.00;;;;;;;10.48;54.24;101734.85;106892;1259;25436;-59
2024/03/21 03:31:28;;;;;;;7.80;7.00;;;;;;;10.48;54.22;101732.25;107006;1257;25350;-58
2024/03/21 03:36:40;;;;;;;8.50;7.20;;;;;;;10.47;54.26;101735.71;107144;1255;22674;-57
2024/03/21 03:39:08;;;;;;;8.40;7.50;;;;;;;10.46;54.19;101734.17;107109;1257;25347;-57
2024/03/21 03:41:35;;;;;;;7.40;6.70;;;;;;;10.45;54.36;101735.73;107021;1254;25487;-58
2024/03/21 03:44:02;;;;;;;7.80;6.60;;;;;;;10.45;54.28;101739.38;107254;1263;25375;-57
2024/03/21 03:46:29;;;;;;;8.20;7.10;;;;;;;10.45;54.23;101738.85;107053;1257;25497;-57
2024/03/21 03:48:56;;;;;;;7.50;6.70;;;;;;;10.44;54.24;101740.42;107280;1255;25481;-57
2024/03/21 03:51:23;;;;;;;7.70;7.00;;;;;;;10.42;54.28;101740.61;107120;1257;25525;-58
2024/03/21 03:53:50;;;;;;;7.10;6.40;;;;;;;10.34;54.46;101742.73;107089;1257;25344;-57
2024/03/21 03:56:17;;;;;;;6.90;6.20;;;;;;;10.33;54.46;101743.60;107202;1251;22902;-58
2024/03/21 03:58:44;;;;;;;8.50;6.40;;;;;;;10.33;54.58;101745.17;107054;1257;25353;-57
2024/03/21 04:01:12;;;;;;;7.00;6.30;;;;;;;10.34;54.57;101746.38;106318;1254;1003445;-57
2024/03/21 04:03:39;;;;;;;7.00;6.30;;;;;;;10.34;54.55;101751.92;107133;1254;25464;-57
2024/03/21 04:06:06;;;;;;;7.10;6.40;;;;;;;10.33;54.65;101748.80;106890;1267;26121;-57
2024/03/21 04:08:33;;;;;;;7.30;6.50;;;;;;;10.33;54.70;101750.89;107069;1254;25496;-57
2024/03/21 04:11:00;;;;;;;8.00;7.20;;;;;;;10.33;54.72;101751.59;107148;1250;22528;-57
2024/03/21 04:13:27;;;;;;;8.90;7.50;;;;;;;10.31;54.72;101754.36;107120;1254;25366;-57
2024/03/21 04:15:55;;;;;;;7.40;6.70;;;;;;;10.31;54.74;101758.36;106319;1256;1016499;-57
2024/03/21 04:18:23;;;;;;;9.00;8.10;;;;;;;10.31;54.83;101758.70;106379;1253;1003228;-57
2024/03/21 04:20:51;;;;;;;7.60;6.90;;;;;;;10.31;54.89;101759.05;107152;1251;25351;-57
2024/03/21 04:23:19;;;;;;;9.20;7.30;;;;;;;10.32;54.95;101758.71;106824;1253;22537;-57
2024/03/21 04:25:46;;;;;;;7.20;6.60;;;;;;;10.32;54.90;101761.13;106313;1254;1003314;-58
2024/03/21 04:28:12;;;;;;;7.70;6.90;;;;;;;10.33;54.91;101767.88;106904;1263;25378;-59
2024/03/21 04:30:39;;;;;;;7.90;7.10;;;;;;;10.34;54.92;101771.18;107017;1254;24219;-58
2024/03/21 04:33:07;;;;;;;7.80;7.00;;;;;;;10.35;54.90;101770.14;106008;1254;1002974;-58
2024/03/21 04:35:34;;;;;;;8.10;7.20;;;;;;;10.36;54.85;101768.57;106618;1267;25493;-59
2024/03/21 04:38:01;;;;;;;8.60;7.70;;;;;;;10.36;54.89;101768.04;107123;1256;25375;-59
2024/03/21 04:40:28;;;;;;;8.60;7.60;;;;;;;10.37;54.87;101770.64;106324;1257;1003065;-58
2024/03/21 04:42:57;;;;;;;8.20;7.40;;;;;;;10.39;54.83;101770.64;107067;1254;25465;-58
2024/03/21 04:45:24;;;;;;;8.80;7.90;;;;;;;10.39;54.83;101770.98;106848;1258;25427;-59
2024/03/21 04:47:51;;;;;;;9.40;7.60;;;;;;;10.40;54.81;101768.72;107106;1254;25347;-58
2024/03/21 04:50:22;;;;;;;9.90;8.10;;;;;;;10.42;54.87;101767.66;106351;1257;1003667;-59
2024/03/21 04:52:49;;;;;;;9.30;8.30;;;;;;;10.44;54.81;101766.45;106284;1254;1003355;-59
2024/03/21 04:55:17;;;;;;;8.70;7.80;;;;;;;10.50;54.44;101762.94;107063;1257;25366;-58
2024/03/21 04:57:45;;;;;;;8.80;7.90;;;;;;;10.46;54.58;101761.91;106908;1257;25451;-58
2024/03/21 05:00:13;;;;;;;8.80;7.70;;;;;;;10.43;54.51;101768.36;107123;1256;25363;-58
2024/03/21 05:02:40;;;;;;;9.20;8.10;;;;;;;10.43;54.62;101767.48;106777;1266;25338;-59
2024/03/21 05:05:07;;;;;;;12.00;7.90;;;;;;;10.44;54.61;101772.87;106847;1260;22775;-59
2024/03/21 05:07:34;;;;;;;8.10;7.30;;;;;;;10.45;54.63;101774.23;107060;1266;25353;-59
2024/03/21 05:10:01;;;;;;;8.90;8.00;;;;;;;10.46;54.66;101768.86;106015;1257;1003043;-58
2024/03/21 05:12:28;;;;;;;9.20;8.30;;;;;;;10.48;54.65;101771.98;106781;1267;25417;-58
2024/03/21 05:14:55;;;;;;;8.50;7.70;;;;;;;10.48;54.57;101772.84;106878;1261;25369;-58
2024/03/21 05:17:22;;;;;;;8.50;7.60;;;;;;;10.40;54.66;101777.91;107152;1256;22543;-58
2024/03/21 05:19:49;;;;;;;9.10;7.70;;;;;;;10.45;54.47;101778.05;106820;1267;24090;-59
2024/03/21 05:22:16;;;;;;;9.40;8.30;;;;;;;10.45;54.38;101781.17;106986;1257;25341;-58
2024/03/21 05:24:43;;;;;;;9.20;7.80;;;;;;;10.43;54.44;101780.33;106862;1257;25490;-58
2024/03/21 05:27:15;;;;;;;9.30;7.60;;;;;;;10.44;54.47;101781.54;106953;1254;25494;-58
2024/03/21 05:29:41;;;;;;;;;;;;;;;10.52;54.33;101780.63;107029;1256;24379;-58
2024/03/21 05:32:09;;;;;;;8.40;7.40;;;;;;;10.54;54.32;101779.92;106230;1257;1003690;-58
2024/03/21 05:34:36;;;;;;;9.60;8.60;;;;;;;10.54;54.38;101777.84;106955;1253;25340;-58
2024/03/21 05:37:03;;;;;;;8.60;7.70;;;;;;;10.54;54.27;101778.72;107000;1257;25493;-59
2024/03/21 05:39:30;;;;;;;9.20;8.20;;;;;;;10.55;54.38;101780.79;106720;1276;25334;-59
2024/03/21 05:41:57;;;;;;;8.60;7.80;;;;;;;10.56;54.38;101780.95;107090;1263;25366;-59
2024/03/21 05:44:25;;;;;;;8.80;7.90;;;;;;;10.51;54.69;101783.40;106415;1251;1002998;-59
2024/03/21 05:46:52;;;;;;;10.10;9.00;;;;;;;10.51;54.49;101783.06;107100;1254;25343;-59
2024/03/21 05:49:19;;;;;;;9.10;8.20;;;;;;;10.52;54.42;101782.02;106941;1266;25335;-59
2024/03/21 05:51:48;;;;;;;8.60;7.70;;;;;;;10.53;54.39;101781.66;107226;1256;24200;-57
2024/03/21 05:54:15;;;;;;;8.60;7.70;;;;;;;10.53;54.34;101780.09;107150;1255;25525;-58
2024/03/21 05:56:42;;;;;;;9.30;8.40;;;;;;;10.53;54.29;101782.52;107056;1257;24201;-58
2024/03/21 05:59:09;;;;;;;9.30;8.30;;;;;;;10.53;54.28;101782.02;106074;1274;1002986;-58
2024/03/21 06:01:36;;;;;;;10.00;9.00;;;;;;;10.53;54.32;101785.84;107078;1254;25338;-58
2024/03/21 06:04:04;;;;;;;9.50;8.60;;;;;;;10.54;54.37;101777.67;107206;1266;25450;-58
2024/03/21 06:06:32;;;;;;;10.00;9.00;;;;;;;10.61;54.20;101781.45;107163;1266;25530;-58
2024/03/21 06:09:00;;;;;;;9.20;8.30;;;;;;;10.64;54.14;101781.78;106453;1266;1003339;-58
2024/03/21 06:11:27;;;;;;;9.10;8.20;;;;;;;10.66;54.23;101781.41;106948;1256;25379;-57
2024/03/21 06:13:54;;;;;;;8.70;7.70;;;;;;;10.67;53.88;101784.89;107017;1256;25347;-58
2024/03/21 06:16:20;;;;;;;7.40;6.70;;;;;;;10.67;53.75;101783.50;106431;1253;1004094;-58
2024/03/21 06:18:47;;;;;;;7.10;6.40;;;;;;;10.65;53.78;101785.59;107086;1257;25423;-58
2024/03/21 06:21:15;;;;;;;6.80;6.10;;;;;;;10.65;53.71;101786.79;107140;1251;25359;-58
2024/03/21 06:23:42;;;;;;;6.90;6.20;;;;;;;10.68;53.57;101784.88;107111;1251;25427;-58
2024/03/21 06:26:09;;;;;;;6.90;6.20;;;;;;;10.70;53.53;101787.48;106976;1263;24198;-59
2024/03/21 06:28:36;;;;;;;7.00;6.30;;;;;;;10.73;53.54;101785.02;106769;1257;24073;-58
2024/03/21 06:31:03;;;;;;;6.90;6.20;;;;;;;10.70;53.55;101787.65;106803;1257;25407;-58
2024/03/21 06:33:31;;;;;;;6.20;5.60;;;;;;;10.73;53.30;101787.63;106842;1255;25375;-57
2024/03/21 06:35:58;;;;;;;7.70;6.40;;;;;;;10.73;53.22;101790.23;107172;1257;25497;-58
2024/03/21 06:38:24;;;;;;;6.90;6.30;;;;;;;10.73;53.13;101789.02;107041;1257;25375;-58
2024/03/21 06:40:52;;;;;;;7.30;6.70;;;;;;;10.73;53.09;101786.24;106739;1269;25487;-57
2024/03/21 06:43:19;;;;;;;7.60;6.90;;;;;;;10.73;53.27;101789.02;107122;1257;25327;-58
2024/03/21 06:45:55;;;;;;;7.30;6.70;;;;;;;10.75;53.31;101785.19;107048;1266;25366;-58
2024/03/21 06:48:22;;;;;;;7.80;7.10;;;;;;;10.77;53.45;101786.21;107232;1266;22527;-58
2024/03/21 06:50:50;;;;;;;6.90;6.30;;;;;;;10.79;53.44;101786.02;107113;1266;25414;-58
2024/03/21 06:53:17;;;;;;;7.10;6.50;;;;;;;10.74;53.78;101785.36;107157;1266;25406;-58
2024/03/21 06:55:52;;;;;;;7.20;6.50;;;;;;;10.70;54.24;101784.34;106923;1258;25378;-57
2024/03/21 06:58:19;;;;;;;7.00;6.40;;;;;;;10.76;54.36;101785.18;106987;1269;24364;-57
2024/03/21 07:00:46;;;;;;;6.80;6.10;;;;;;;10.86;54.55;101788.23;107046;1266;25379;-57
2024/03/21 07:03:14;;;;;;;6.60;6.00;;;;;;;11.05;54.22;101791.05;107059;1266;25362;-57
2024/03/21 07:05:41;;;;;;;7.40;6.70;;;;;;;11.15;53.88;101791.84;107203;1266;22530;-57
2024/03/21 07:08:09;;;;;;;7.10;6.40;;;;;;;11.25;53.64;101793.50;106894;1269;25445;-57
2024/03/21 07:10:37;;;;;;;7.20;6.50;;;;;;;11.32;53.37;101798.48;107057;1266;25375;-58
2024/03/21 07:13:04;;;;;;;7.70;7.00;;;;;;;11.37;53.13;101797.23;106951;1267;25414;-58
2024/03/21 07:15:31;;;;;;;7.60;6.80;;;;;;;11.43;53.27;101800.14;106797;1257;25363;-58
2024/03/21 07:17:57;;;;;;;7.60;6.90;;;;;;;11.49;53.21;101796.42;106808;1270;22800;-57
2024/03/21 07:20:24;;;;;;;7.70;7.00;;;;;;;11.56;53.19;101794.45;106212;1253;1003242;-57
2024/03/21 07:22:52;;;;;;;8.30;7.50;;;;;;;11.63;53.26;101799.42;106761;1269;25420;-57
2024/03/21 07:25:19;;;;;;;8.10;7.30;;;;;;;11.69;53.08;101798.70;106072;1266;1003270;-57
2024/03/21 07:27:46;;;;;;;8.50;7.70;;;;;;;11.75;52.93;101800.73;107115;1270;25395;-57
2024/03/21 07:30:16;;;;;;;7.30;6.60;;;;;;;11.80;52.69;101807.80;107076;1266;25375;-57
2024/03/21 07:32:43;;;;;;;7.90;6.90;;;;;;;11.81;52.38;101805.02;106869;1267;25414;-57
2024/03/21 07:35:10;;;;;;;7.60;6.90;;;;;;;11.81;52.16;101806.92;107136;1266;25384;-57
2024/03/21 07:37:37;;;;;;;7.90;7.20;;;;;;;11.81;52.12;101808.67;106736;1256;25379;-57
2024/03/21 07:40:05;;;;;;;7.50;6.80;;;;;;;11.82;52.10;101807.79;107124;1266;25347;-57
2024/03/21 07:42:33;;;;;;;8.30;7.30;;;;;;;11.83;52.14;101809.69;107165;1266;22539;-57
2024/03/21 07:45:03;;;;;;;7.10;6.40;;;;;;;11.85;52.18;101811.75;107167;1267;25322;-58
2024/03/21 07:47:30;;;;;;;8.00;7.20;;;;;;;11.86;52.24;101809.13;107100;1267;25413;-58
2024/03/21 07:49:57;;;;;;;7.60;6.20;;;;;;;11.88;52.03;101810.51;106858;1266;22536;-57
2024/03/21 07:52:24;;;;;;;8.50;7.60;;;;;;;11.89;52.11;101815.71;107088;1267;25347;-57
2024/03/21 07:54:51;;;;;;;7.60;6.90;;;;;;;11.91;52.07;101813.42;107054;1269;25375;-57
2024/03/21 07:57:18;;;;;;;8.40;7.70;;;;;;;11.92;52.04;101812.55;106905;1272;25557;-57
2024/03/21 07:59:45;;;;;;;7.10;6.50;;;;;;;11.93;51.96;101816.53;106942;1267;25439;-57
2024/03/21 08:02:12;;;;;;;7.70;6.90;;;;;;;11.95;51.90;101820.69;107091;1267;22524;-58
2024/03/21 08:04:39;;;;;;;7.70;6.90;;;;;;;11.95;51.83;101818.61;107084;1270;25391;-57
2024/03/21 08:07:06;;;;;;;7.20;6.50;;;;;;;11.96;51.82;101817.05;107169;1266;25337;-57
2024/03/21 08:09:33;;;;;;;7.40;6.70;;;;;;;11.97;51.86;101820.49;107073;1266;25351;-57
2024/03/21 08:12:01;;;;;;;7.50;6.80;;;;;;;11.99;51.74;101821.18;107140;1266;25347;-57
2024/03/21 08:14:28;;;;;;;7.60;6.90;;;;;;;11.99;51.67;101818.38;107221;1266;23555;-57
2024/03/21 08:16:55;;;;;;;7.40;6.70;;;;;;;11.99;51.80;101816.13;107078;1270;24222;-57
2024/03/21 08:19:22;;;;;;;8.30;7.60;;;;;;;12.01;51.57;101819.58;107071;1266;22536;-57
2024/03/21 08:21:49;;;;;;;8.40;7.70;;;;;;;12.05;51.77;101818.31;107083;1267;25375;-57
2024/03/21 08:24:16;;;;;;;8.00;7.20;;;;;;;12.08;51.82;101814.81;107092;1270;25392;-57
2024/03/21 08:26:43;;;;;;;7.60;6.60;;;;;;;12.11;51.76;101816.33;107171;1266;24218;-57
2024/03/21 08:29:10;;;;;;;7.00;6.40;;;;;;;12.14;51.84;101816.84;107205;1266;23322;-57
2024/03/21 08:31:37;;;;;;;7.80;7.00;;;;;;;12.17;51.64;101818.88;107065;1267;24362;-57
2024/03/21 08:34:04;;;;;;;7.60;6.90;;;;;;;12.19;51.37;101816.94;106850;1273;22744;-57
2024/03/21 08:36:31;;;;;;;7.70;7.00;;;;;;;12.22;51.34;101819.34;106886;1273;25366;-57
2024/03/21 08:38:58;;;;;;;7.70;7.00;;;;;;;12.24;51.25;101822.11;106253;1267;1003409;-57
2024/03/21 08:41:26;;;;;;;7.30;6.70;;;;;;;12.25;51.08;101826.97;107107;1266;25350;-57
2024/03/21 08:43:53;;;;;;;8.20;7.40;;;;;;;12.27;51.14;101829.73;106885;1269;22554;-57
2024/03/21 08:46:22;;;;;;;7.70;6.90;;;;;;;12.28;50.95;101829.02;107118;1266;22535;-57
2024/03/21 08:48:49;;;;;;;8.30;7.50;;;;;;;12.29;50.94;101831.45;107177;1266;25401;-58
2024/03/21 08:51:16;;;;;;;7.50;6.80;;;;;;;12.31;50.99;101836.98;107104;1267;25365;-57
2024/03/21 08:53:43;;;;;;;8.30;7.40;;;;;;;12.34;51.03;101842.70;107043;1270;25462;-57
2024/03/21 08:56:10;;;;;;;8.40;7.60;;;;;;;12.36;50.79;101842.14;107065;1267;25405;-58
2024/03/21 08:58:37;;;;;;;8.20;7.40;;;;;;;12.37;50.40;101837.95;107073;1266;25506;-57
2024/03/21 09:01:05;;;;;;;7.80;7.00;;;;;;;12.38;50.30;101844.56;107054;1266;25379;-59
2024/03/21 09:03:32;;;;;;;7.30;6.60;;;;;;;12.39;50.40;101845.41;106933;1267;25452;-57
2024/03/21 09:05:59;;;;;;;7.60;6.90;;;;;;;12.42;50.70;101848.69;106618;1273;25439;-57
2024/03/21 09:08:26;;;;;;;7.50;6.80;;;;;;;12.44;50.53;101849.54;107054;1274;25423;-57
2024/03/21 09:11:00;;;;;;;6.90;6.30;;;;;;;12.48;50.60;101845.84;107082;1266;25347;-57
2024/03/21 09:13:30;;;;;;;6.80;6.20;;;;;;;12.51;50.67;101847.19;107117;1266;24250;-58
2024/03/21 09:15:57;;;;;;;6.90;6.30;;;;;;;12.54;50.87;101843.14;107077;1266;24385;-57
2024/03/21 09:18:24;;;;;;;7.00;6.30;;;;;;;12.63;50.76;101840.75;106381;1269;1002963;-57
2024/03/21 09:20:52;;;;;;;7.70;6.90;;;;;;;12.74;50.77;101839.75;107109;1266;25375;-57
2024/03/21 09:23:19;;;;;;;7.40;6.70;;;;;;;12.84;50.62;101838.04;107112;1267;25391;-57
2024/03/21 09:25:46;;;;;;;9.50;7.20;;;;;;;12.94;50.52;101836.52;107067;1273;25347;-59
2024/03/21 09:28:13;;;;;;;12.50;7.20;;;;;;;13.04;50.41;101839.67;107138;1266;25375;-56
2024/03/21 09:30:44;;;;;;;7.60;6.80;;;;;;;13.12;49.99;101843.78;106994;1267;25431;-56
2024/03/21 09:33:12;;;;;;;;;;;;;;;13.11;49.31;101843.61;107359;1267;25315;-56
2024/03/21 09:35:39;;;;;;;8.20;7.40;;;;;;;13.07;49.07;101843.83;107270;1267;25365;-57
2024/03/21 09:38:06;;;;;;;8.10;7.40;;;;;;;13.03;49.10;101849.63;107228;1267;25378;-56
2024/03/21 09:40:33;;;;;;;8.10;7.40;;;;;;;12.98;49.69;101848.80;107219;1270;26098;-56
2024/03/21 09:43:00;;;;;;;6.70;6.10;;;;;;;12.96;49.57;101850.58;107093;1273;22535;-56
2024/03/21 09:45:27;;;;;;;8.00;7.20;;;;;;;12.93;49.59;101851.84;107420;1256;23269;-57
2024/03/21 09:47:55;;;;;;;7.00;6.40;;;;;;;12.93;49.71;101852.19;107156;1267;24452;-56
2024/03/21 09:50:23;;;;;;;6.90;6.20;;;;;;;12.94;49.69;101850.61;107189;1253;24297;-56
2024/03/21 09:52:50;;;;;;;7.00;6.40;;;;;;;12.95;49.77;101855.13;107205;1254;25491;-57
2024/03/21 09:55:17;;;;;;;7.20;6.50;;;;;;;12.96;49.80;101857.54;107139;1267;25398;-56
2024/03/21 09:57:44;;;;;;;7.40;6.70;;;;;;;12.98;50.22;101863.09;106869;1260;25414;-56
2024/03/21 10:00:12;;;;;;;7.00;6.40;;;;;;;13.02;50.16;101862.16;106974;1270;25815;-56
2024/03/21 10:02:40;;;;;;;7.30;6.70;;;;;;;13.03;49.68;101859.02;106863;1267;22600;-56
2024/03/21 10:05:09;;;;;;;7.00;6.30;;;;;;;13.03;49.47;101857.45;107104;1270;25365;-56
2024/03/21 10:07:37;;;;;;;7.30;6.60;;;;;;;13.04;49.39;101861.80;106969;1269;23270;-57
2024/03/21 10:10:05;;;;;;;6.70;6.00;;;;;;;13.04;49.40;101857.96;107315;1267;25442;-57
2024/03/21 10:12:32;;;;;;;7.60;6.90;;;;;;;13.06;49.36;101854.48;106923;1275;25427;-56
2024/03/21 10:15:00;;;;;;;7.00;6.30;;;;;;;13.08;49.35;101855.84;107309;1270;25375;-56
2024/03/21 10:17:27;;;;;;;7.20;6.50;;;;;;;13.10;49.29;101859.99;107055;1267;25504;-57
2024/03/21 10:19:55;;;;;;;6.70;6.10;;;;;;;13.12;49.18;101858.23;107153;1252;25357;-56
2024/03/21 10:22:22;;;;;;;6.60;6.00;;;;;;;13.16;49.38;101857.48;107231;1269;25350;-57
2024/03/21 10:24:51;;;;;;;6.40;5.80;;;;;;;13.20;49.47;101857.77;107302;1267;25414;-56
2024/03/21 10:27:18;;;;;;;6.40;5.80;;;;;;;13.27;49.49;101859.23;106999;1267;22941;-56
2024/03/21 10:29:46;;;;;;;7.10;6.50;;;;;;;13.35;49.12;101854.39;107153;1260;25350;-56
2024/03/21 10:32:20;;;;;;;6.50;5.90;;;;;;;13.42;48.95;101854.27;107737;1263;25399;-56
2024/03/21 10:34:54;;;;;;;6.60;6.10;;;;;;;13.49;48.93;101851.55;107077;1267;22654;-56
2024/03/21 10:37:37;;;;;;;7.10;6.40;;;;;;;13.55;48.65;101846.23;107207;1270;23875;-57
2024/03/21 10:40:06;;;;;;;7.20;6.60;;;;;;;13.60;48.54;101844.92;107326;1257;25379;-56
2024/03/21 10:42:36;;;;;;;6.90;6.30;;;;;;;13.64;48.59;101842.23;107297;1266;22528;-56
2024/03/21 10:45:04;;;;;;;7.00;6.20;;;;;;;13.69;48.41;101844.41;107026;1267;25347;-56
2024/03/21 10:47:33;;;;;;;6.70;6.10;;;;;;;13.72;48.24;101842.42;107075;1267;25385;-57
2024/03/21 10:50:00;;;;;;;7.10;6.40;;;;;;;13.76;48.17;101846.73;106610;1274;24210;-56
2024/03/21 10:52:28;;;;;;;6.70;6.10;;;;;;;13.79;48.08;101847.89;107204;1266;25563;-57
2024/03/21 10:54:54;;;;;;;6.40;5.80;;;;;;;13.80;48.14;101849.09;106972;1271;22524;-56
2024/03/21 10:57:24;;;;;;;7.30;6.70;;;;;;;13.79;48.00;101851.91;107142;1267;25414;-56
2024/03/21 11:00:08;;;;;;;6.40;5.80;;;;;;;13.72;47.76;101850.46;107217;1267;25343;-56
2024/03/21 11:02:39;;;;;;;6.00;5.50;;;;;;;13.73;47.46;101849.91;107439;1267;24384;-56
2024/03/21 11:05:10;;;;;;;5.70;5.20;;;;;;;13.71;47.23;101850.98;107476;1267;25347;-56
2024/03/21 11:07:40;;;;;;;6.90;6.20;;;;;;;13.70;47.42;101848.58;107429;1266;23001;-56
2024/03/21 11:10:07;;;;;;;6.90;6.30;;;;;;;13.69;47.27;101850.70;107458;1267;25351;-56
2024/03/21 11:12:34;;;;;;;6.50;5.90;;;;;;;13.65;47.32;101850.58;107144;1259;22556;-56
2024/03/21 11:15:02;;;;;;;6.20;5.60;;;;;;;13.60;47.45;101850.15;107392;1267;22520;-56
2024/03/21 11:17:29;;;;;;;5.70;5.20;;;;;;;13.47;47.39;101848.42;107315;1267;25350;-57
2024/03/21 11:20:01;;;;;;;6.40;5.80;;;;;;;13.43;47.53;101848.85;107143;1267;25521;-56
2024/03/21 11:22:28;;;;;;;5.80;5.30;;;;;;;13.53;47.57;101851.31;107577;1266;25264;-56